sensor_id;sensor_type;location;lat;lon;timestamp;P1;durP1;ratioP1;P2;durP2;ratioP2
54416;SDS011;40326;51.220;7.250;2022-12-10T00:01:44;218.50;;;34.17;;
54416;SDS011;40326;51.220;7.250;2022-12-10T00:04:10;194.15;;;33.70;;
54416;SDS011;40326;51.220;7.250;2022-12-10T00:06:36;156.52;;;31.90;;
54416;SDS011;40326;51.220;7.250;2022-12-10T00:09:02;279.45;;;39.88;;
54416;SDS011;40326;51.220;7.250;2022-12-10T00:11:27;109.07;;;29.55;;
54416;SDS011;40326;51.220;7.250;2022-12-10T00:13:53;191.00;;;37.13;;
54416;SDS011;40326;51.220;7.250;2022-12-10T00:16:19;107.72;;;30.55;;
54416;SDS011;40326;51.220;7.250;2022-12-10T00:18:44;133.15;;;31.77;;
54416;SDS011;40326;51.220;7.250;2022-12-10T00:21:11;112.25;;;28.70;;
54416;SDS011;40326;51.220;7.250;2022-12-10T00:23:36;201.75;;;37.17;;
54416;SDS011;40326;51.220;7.250;2022-12-10T00:26:05;246.82;;;39.03;;
54416;SDS011;40326;51.220;7.250;2022-12-10T00:28:31;282.13;;;42.10;;
54416;SDS011;40326;51.220;7.250;2022-12-10T00:31:05;172.20;;;32.05;;
54416;SDS011;40326;51.220;7.250;2022-12-10T00:33:30;299.77;;;42.22;;
54416;SDS011;40326;51.220;7.250;2022-12-10T00:35:55;151.50;;;32.83;;
54416;SDS011;40326;51.220;7.250;2022-12-10T00:38:20;286.08;;;41.08;;
54416;SDS011;40326;51.220;7.250;2022-12-10T00:40:45;366.52;;;48.92;;
54416;SDS011;40326;51.220;7.250;2022-12-10T00:43:11;387.83;;;43.88;;
54416;SDS011;40326;51.220;7.250;2022-12-10T00:45:36;212.05;;;35.25;;
54416;SDS011;40326;51.220;7.250;2022-12-10T00:48:01;177.23;;;35.58;;
54416;SDS011;40326;51.220;7.250;2022-12-10T00:50:26;208.25;;;33.42;;
54416;SDS011;40326;51.220;7.250;2022-12-10T00:52:51;96.30;;;27.63;;
54416;SDS011;40326;51.220;7.250;2022-12-10T00:55:17;346.17;;;43.38;;
54416;SDS011;40326;51.220;7.250;2022-12-10T00:57:42;207.38;;;34.55;;
54416;SDS011;40326;51.220;7.250;2022-12-10T01:00:07;249.93;;;38.63;;
54416;SDS011;40326;51.220;7.250;2022-12-10T01:02:33;94.50;;;25.60;;
54416;SDS011;40326;51.220;7.250;2022-12-10T01:04:58;240.43;;;36.15;;
54416;SDS011;40326;51.220;7.250;2022-12-10T01:07:23;226.90;;;33.45;;
54416;SDS011;40326;51.220;7.250;2022-12-10T01:09:48;133.75;;;26.80;;
54416;SDS011;40326;51.220;7.250;2022-12-10T01:12:13;126.13;;;27.27;;
54416;SDS011;40326;51.220;7.250;2022-12-10T01:14:38;286.35;;;44.05;;
54416;SDS011;40326;51.220;7.250;2022-12-10T01:17:04;142.20;;;30.55;;
54416;SDS011;40326;51.220;7.250;2022-12-10T01:19:31;194.60;;;32.15;;
54416;SDS011;40326;51.220;7.250;2022-12-10T01:21:56;310.10;;;42.42;;
54416;SDS011;40326;51.220;7.250;2022-12-10T01:24:22;329.65;;;43.10;;
54416;SDS011;40326;51.220;7.250;2022-12-10T01:26:48;97.75;;;26.05;;
54416;SDS011;40326;51.220;7.250;2022-12-10T01:29:13;185.23;;;32.60;;
54416;SDS011;40326;51.220;7.250;2022-12-10T01:31:38;70.38;;;24.42;;
54416;SDS011;40326;51.220;7.250;2022-12-10T01:34:04;214.13;;;36.17;;
54416;SDS011;40326;51.220;7.250;2022-12-10T01:36:32;101.22;;;25.48;;
54416;SDS011;40326;51.220;7.250;2022-12-10T01:38:58;183.63;;;31.50;;
54416;SDS011;40326;51.220;7.250;2022-12-10T01:41:26;144.40;;;27.80;;
54416;SDS011;40326;51.220;7.250;2022-12-10T01:46:19;219.02;;;32.72;;
54416;SDS011;40326;51.220;7.250;2022-12-10T01:48:45;123.13;;;28.58;;
54416;SDS011;40326;51.220;7.250;2022-12-10T01:51:11;185.50;;;32.65;;
54416;SDS011;40326;51.220;7.250;2022-12-10T01:53:37;165.00;;;31.70;;
54416;SDS011;40326;51.220;7.250;2022-12-10T01:56:02;113.65;;;24.90;;
54416;SDS011;40326;51.220;7.250;2022-12-10T01:58:27;214.15;;;35.45;;
54416;SDS011;40326;51.220;7.250;2022-12-10T02:03:38;140.00;;;29.13;;
54416;SDS011;40326;51.220;7.250;2022-12-10T02:11:40;75.65;;;27.92;;
54416;SDS011;40326;51.220;7.250;2022-12-10T02:14:10;118.07;;;26.98;;
54416;SDS011;40326;51.220;7.250;2022-12-10T02:16:38;65.28;;;27.17;;
54416;SDS011;40326;51.220;7.250;2022-12-10T02:21:32;79.35;;;27.02;;
54416;SDS011;40326;51.220;7.250;2022-12-10T02:24:03;80.57;;;28.83;;
54416;SDS011;40326;51.220;7.250;2022-12-10T02:26:33;70.53;;;27.27;;
54416;SDS011;40326;51.220;7.250;2022-12-10T02:29:10;81.82;;;30.48;;
54416;SDS011;40326;51.220;7.250;2022-12-10T02:31:38;66.30;;;26.83;;
54416;SDS011;40326;51.220;7.250;2022-12-10T02:34:06;83.63;;;28.05;;
54416;SDS011;40326;51.220;7.250;2022-12-10T02:36:34;78.50;;;27.33;;
54416;SDS011;40326;51.220;7.250;2022-12-10T02:39:03;82.32;;;27.15;;
54416;SDS011;40326;51.220;7.250;2022-12-10T02:41:44;71.22;;;27.38;;
54416;SDS011;40326;51.220;7.250;2022-12-10T02:44:11;71.05;;;26.83;;
54416;SDS011;40326;51.220;7.250;2022-12-10T02:46:38;66.45;;;25.48;;
54416;SDS011;40326;51.220;7.250;2022-12-10T02:49:06;68.57;;;26.40;;
54416;SDS011;40326;51.220;7.250;2022-12-10T02:51:32;65.05;;;25.52;;
54416;SDS011;40326;51.220;7.250;2022-12-10T02:54:02;68.03;;;26.70;;
54416;SDS011;40326;51.220;7.250;2022-12-10T02:56:31;63.33;;;26.08;;
54416;SDS011;40326;51.220;7.250;2022-12-10T03:04:03;61.15;;;27.48;;
54416;SDS011;40326;51.220;7.250;2022-12-10T03:06:32;58.45;;;26.40;;
54416;SDS011;40326;51.220;7.250;2022-12-10T03:11:26;56.35;;;26.08;;
54416;SDS011;40326;51.220;7.250;2022-12-10T03:16:56;64.03;;;27.17;;
54416;SDS011;40326;51.220;7.250;2022-12-10T03:19:24;64.18;;;28.75;;
54416;SDS011;40326;51.220;7.250;2022-12-10T03:21:51;66.20;;;27.52;;
54416;SDS011;40326;51.220;7.250;2022-12-10T03:24:18;59.47;;;26.35;;
54416;SDS011;40326;51.220;7.250;2022-12-10T03:26:45;55.53;;;24.80;;
54416;SDS011;40326;51.220;7.250;2022-12-10T03:29:17;58.70;;;25.70;;
54416;SDS011;40326;51.220;7.250;2022-12-10T03:31:44;54.67;;;25.17;;
54416;SDS011;40326;51.220;7.250;2022-12-10T03:34:11;55.00;;;25.17;;
54416;SDS011;40326;51.220;7.250;2022-12-10T03:36:37;63.25;;;28.35;;
54416;SDS011;40326;51.220;7.250;2022-12-10T03:39:04;60.90;;;26.80;;
54416;SDS011;40326;51.220;7.250;2022-12-10T03:41:30;54.38;;;25.80;;
54416;SDS011;40326;51.220;7.250;2022-12-10T03:43:58;56.83;;;26.75;;
54416;SDS011;40326;51.220;7.250;2022-12-10T03:46:25;59.60;;;28.45;;
54416;SDS011;40326;51.220;7.250;2022-12-10T03:48:51;62.35;;;27.83;;
54416;SDS011;40326;51.220;7.250;2022-12-10T03:51:17;56.55;;;26.25;;
54416;SDS011;40326;51.220;7.250;2022-12-10T03:53:43;57.67;;;26.10;;
54416;SDS011;40326;51.220;7.250;2022-12-10T03:56:09;59.05;;;26.50;;
54416;SDS011;40326;51.220;7.250;2022-12-10T03:58:35;52.42;;;24.10;;
54416;SDS011;40326;51.220;7.250;2022-12-10T04:01:02;50.97;;;24.95;;
54416;SDS011;40326;51.220;7.250;2022-12-10T04:03:28;49.65;;;25.63;;
54416;SDS011;40326;51.220;7.250;2022-12-10T04:05:54;47.85;;;24.23;;
54416;SDS011;40326;51.220;7.250;2022-12-10T04:08:20;55.22;;;27.60;;
54416;SDS011;40326;51.220;7.250;2022-12-10T04:10:46;54.80;;;26.00;;
54416;SDS011;40326;51.220;7.250;2022-12-10T04:13:11;49.20;;;25.48;;
54416;SDS011;40326;51.220;7.250;2022-12-10T04:18:39;50.67;;;23.85;;
54416;SDS011;40326;51.220;7.250;2022-12-10T04:21:04;52.53;;;25.42;;
54416;SDS011;40326;51.220;7.250;2022-12-10T04:26:32;52.53;;;23.63;;
54416;SDS011;40326;51.220;7.250;2022-12-10T04:31:41;46.63;;;24.08;;
54416;SDS011;40326;51.220;7.250;2022-12-10T04:34:06;46.15;;;24.58;;
54416;SDS011;40326;51.220;7.250;2022-12-10T04:36:31;47.25;;;23.70;;
54416;SDS011;40326;51.220;7.250;2022-12-10T04:38:57;50.30;;;24.88;;
54416;SDS011;40326;51.220;7.250;2022-12-10T04:41:22;36.85;;;21.42;;
54416;SDS011;40326;51.220;7.250;2022-12-10T04:43:48;41.83;;;23.83;;
54416;SDS011;40326;51.220;7.250;2022-12-10T04:46:13;39.83;;;23.25;;
54416;SDS011;40326;51.220;7.250;2022-12-10T04:48:38;38.35;;;22.52;;
54416;SDS011;40326;51.220;7.250;2022-12-10T04:51:03;36.08;;;20.67;;
54416;SDS011;40326;51.220;7.250;2022-12-10T04:53:29;37.05;;;19.83;;
54416;SDS011;40326;51.220;7.250;2022-12-10T04:55:54;35.50;;;19.20;;
54416;SDS011;40326;51.220;7.250;2022-12-10T04:58:19;34.47;;;20.33;;
54416;SDS011;40326;51.220;7.250;2022-12-10T05:00:44;37.60;;;19.98;;
54416;SDS011;40326;51.220;7.250;2022-12-10T05:03:09;39.25;;;22.58;;
54416;SDS011;40326;51.220;7.250;2022-12-10T05:05:35;35.92;;;21.98;;
54416;SDS011;40326;51.220;7.250;2022-12-10T05:08:00;35.50;;;20.00;;
54416;SDS011;40326;51.220;7.250;2022-12-10T05:10:25;37.70;;;21.92;;
54416;SDS011;40326;51.220;7.250;2022-12-10T05:12:51;31.45;;;17.95;;
54416;SDS011;40326;51.220;7.250;2022-12-10T05:15:16;31.65;;;19.20;;
54416;SDS011;40326;51.220;7.250;2022-12-10T05:17:41;30.17;;;19.17;;
54416;SDS011;40326;51.220;7.250;2022-12-10T05:20:07;33.17;;;19.55;;
54416;SDS011;40326;51.220;7.250;2022-12-10T05:22:32;31.85;;;18.02;;
54416;SDS011;40326;51.220;7.250;2022-12-10T05:25:16;31.58;;;19.38;;
54416;SDS011;40326;51.220;7.250;2022-12-10T05:27:41;27.38;;;17.45;;
54416;SDS011;40326;51.220;7.250;2022-12-10T05:30:06;28.60;;;17.52;;
54416;SDS011;40326;51.220;7.250;2022-12-10T05:32:32;29.88;;;18.17;;
54416;SDS011;40326;51.220;7.250;2022-12-10T05:34:58;29.17;;;17.70;;
54416;SDS011;40326;51.220;7.250;2022-12-10T05:37:23;28.55;;;18.38;;
54416;SDS011;40326;51.220;7.250;2022-12-10T05:39:48;31.30;;;18.80;;
54416;SDS011;40326;51.220;7.250;2022-12-10T05:42:13;29.17;;;17.40;;
54416;SDS011;40326;51.220;7.250;2022-12-10T05:44:38;31.17;;;18.63;;
54416;SDS011;40326;51.220;7.250;2022-12-10T05:47:03;28.63;;;16.92;;
54416;SDS011;40326;51.220;7.250;2022-12-10T05:49:29;25.60;;;16.77;;
54416;SDS011;40326;51.220;7.250;2022-12-10T05:51:54;26.88;;;17.08;;
54416;SDS011;40326;51.220;7.250;2022-12-10T05:54:19;29.13;;;18.42;;
54416;SDS011;40326;51.220;7.250;2022-12-10T05:56:44;28.75;;;17.77;;
54416;SDS011;40326;51.220;7.250;2022-12-10T05:59:09;28.38;;;17.40;;
54416;SDS011;40326;51.220;7.250;2022-12-10T06:01:35;29.88;;;17.70;;
54416;SDS011;40326;51.220;7.250;2022-12-10T06:04:01;28.90;;;18.02;;
54416;SDS011;40326;51.220;7.250;2022-12-10T06:06:28;28.60;;;17.60;;
54416;SDS011;40326;51.220;7.250;2022-12-10T06:08:53;27.20;;;17.60;;
54416;SDS011;40326;51.220;7.250;2022-12-10T06:11:19;32.67;;;18.17;;
54416;SDS011;40326;51.220;7.250;2022-12-10T06:13:44;26.48;;;17.38;;
54416;SDS011;40326;51.220;7.250;2022-12-10T06:16:10;29.20;;;18.52;;
54416;SDS011;40326;51.220;7.250;2022-12-10T06:18:36;32.53;;;19.13;;
54416;SDS011;40326;51.220;7.250;2022-12-10T06:21:04;30.00;;;18.58;;
54416;SDS011;40326;51.220;7.250;2022-12-10T06:23:30;30.77;;;18.20;;
54416;SDS011;40326;51.220;7.250;2022-12-10T06:25:55;34.67;;;19.98;;
54416;SDS011;40326;51.220;7.250;2022-12-10T06:28:20;29.02;;;17.33;;
54416;SDS011;40326;51.220;7.250;2022-12-10T06:30:45;30.50;;;20.15;;
54416;SDS011;40326;51.220;7.250;2022-12-10T06:33:10;27.92;;;17.95;;
54416;SDS011;40326;51.220;7.250;2022-12-10T06:35:36;29.60;;;18.50;;
54416;SDS011;40326;51.220;7.250;2022-12-10T06:38:02;31.98;;;19.40;;
54416;SDS011;40326;51.220;7.250;2022-12-10T06:40:27;32.28;;;19.00;;
54416;SDS011;40326;51.220;7.250;2022-12-10T06:42:52;31.98;;;19.50;;
54416;SDS011;40326;51.220;7.250;2022-12-10T06:45:17;29.50;;;19.02;;
54416;SDS011;40326;51.220;7.250;2022-12-10T06:47:42;32.35;;;19.50;;
54416;SDS011;40326;51.220;7.250;2022-12-10T06:50:08;32.38;;;19.23;;
54416;SDS011;40326;51.220;7.250;2022-12-10T06:52:33;28.20;;;17.73;;
54416;SDS011;40326;51.220;7.250;2022-12-10T06:54:58;29.60;;;17.50;;
54416;SDS011;40326;51.220;7.250;2022-12-10T06:57:23;29.20;;;17.30;;
54416;SDS011;40326;51.220;7.250;2022-12-10T06:59:49;26.42;;;16.75;;
54416;SDS011;40326;51.220;7.250;2022-12-10T07:02:14;32.13;;;19.00;;
54416;SDS011;40326;51.220;7.250;2022-12-10T07:04:39;29.65;;;18.73;;
54416;SDS011;40326;51.220;7.250;2022-12-10T07:07:05;30.42;;;18.10;;
54416;SDS011;40326;51.220;7.250;2022-12-10T07:09:31;29.83;;;17.73;;
54416;SDS011;40326;51.220;7.250;2022-12-10T07:11:57;31.40;;;20.33;;
54416;SDS011;40326;51.220;7.250;2022-12-10T07:14:22;34.05;;;20.30;;
54416;SDS011;40326;51.220;7.250;2022-12-10T07:16:47;34.50;;;19.00;;
54416;SDS011;40326;51.220;7.250;2022-12-10T07:19:12;30.02;;;18.77;;
54416;SDS011;40326;51.220;7.250;2022-12-10T07:21:39;34.33;;;19.45;;
54416;SDS011;40326;51.220;7.250;2022-12-10T07:24:06;33.75;;;20.00;;
54416;SDS011;40326;51.220;7.250;2022-12-10T07:26:33;29.77;;;19.35;;
54416;SDS011;40326;51.220;7.250;2022-12-10T07:28:59;30.00;;;18.55;;
54416;SDS011;40326;51.220;7.250;2022-12-10T07:31:25;33.53;;;19.30;;
54416;SDS011;40326;51.220;7.250;2022-12-10T07:33:50;30.67;;;19.05;;
54416;SDS011;40326;51.220;7.250;2022-12-10T07:36:16;31.90;;;19.90;;
54416;SDS011;40326;51.220;7.250;2022-12-10T07:38:41;35.50;;;20.52;;
54416;SDS011;40326;51.220;7.250;2022-12-10T07:41:07;31.17;;;18.92;;
54416;SDS011;40326;51.220;7.250;2022-12-10T07:43:34;34.33;;;20.98;;
54416;SDS011;40326;51.220;7.250;2022-12-10T07:46:03;33.30;;;20.30;;
54416;SDS011;40326;51.220;7.250;2022-12-10T07:48:28;37.00;;;22.30;;
54416;SDS011;40326;51.220;7.250;2022-12-10T07:50:57;36.95;;;20.05;;
54416;SDS011;40326;51.220;7.250;2022-12-10T07:53:22;35.17;;;21.25;;
54416;SDS011;40326;51.220;7.250;2022-12-10T07:55:47;40.05;;;22.63;;
54416;SDS011;40326;51.220;7.250;2022-12-10T07:58:12;35.22;;;21.73;;
54416;SDS011;40326;51.220;7.250;2022-12-10T08:00:38;38.92;;;22.55;;
54416;SDS011;40326;51.220;7.250;2022-12-10T08:03:03;35.38;;;21.25;;
54416;SDS011;40326;51.220;7.250;2022-12-10T08:05:28;38.28;;;21.45;;
54416;SDS011;40326;51.220;7.250;2022-12-10T08:07:53;37.38;;;22.35;;
54416;SDS011;40326;51.220;7.250;2022-12-10T08:10:18;35.47;;;20.25;;
54416;SDS011;40326;51.220;7.250;2022-12-10T08:12:44;40.05;;;24.30;;
54416;SDS011;40326;51.220;7.250;2022-12-10T08:15:09;35.72;;;21.80;;
54416;SDS011;40326;51.220;7.250;2022-12-10T08:17:35;38.65;;;23.52;;
54416;SDS011;40326;51.220;7.250;2022-12-10T08:20:00;34.03;;;20.20;;
54416;SDS011;40326;51.220;7.250;2022-12-10T08:22:25;36.45;;;20.88;;
54416;SDS011;40326;51.220;7.250;2022-12-10T08:24:50;32.83;;;20.38;;
54416;SDS011;40326;51.220;7.250;2022-12-10T08:27:16;36.30;;;21.98;;
54416;SDS011;40326;51.220;7.250;2022-12-10T08:29:41;38.05;;;22.58;;
54416;SDS011;40326;51.220;7.250;2022-12-10T08:32:06;43.53;;;23.55;;
54416;SDS011;40326;51.220;7.250;2022-12-10T08:34:32;42.45;;;24.48;;
54416;SDS011;40326;51.220;7.250;2022-12-10T08:36:57;40.75;;;23.38;;
54416;SDS011;40326;51.220;7.250;2022-12-10T08:39:22;43.28;;;25.85;;
54416;SDS011;40326;51.220;7.250;2022-12-10T08:41:47;38.05;;;22.50;;
54416;SDS011;40326;51.220;7.250;2022-12-10T08:44:13;35.08;;;21.52;;
54416;SDS011;40326;51.220;7.250;2022-12-10T08:46:38;40.65;;;24.20;;
54416;SDS011;40326;51.220;7.250;2022-12-10T08:49:04;42.10;;;25.95;;
54416;SDS011;40326;51.220;7.250;2022-12-10T08:51:29;41.85;;;28.10;;
54416;SDS011;40326;51.220;7.250;2022-12-10T08:53:54;39.60;;;25.70;;
54416;SDS011;40326;51.220;7.250;2022-12-10T08:56:19;44.22;;;28.27;;
54416;SDS011;40326;51.220;7.250;2022-12-10T08:58:45;46.35;;;29.00;;
54416;SDS011;40326;51.220;7.250;2022-12-10T09:01:11;47.55;;;28.85;;
54416;SDS011;40326;51.220;7.250;2022-12-10T09:03:36;45.17;;;29.73;;
54416;SDS011;40326;51.220;7.250;2022-12-10T09:06:05;41.22;;;28.08;;
54416;SDS011;40326;51.220;7.250;2022-12-10T09:08:31;46.90;;;29.27;;
54416;SDS011;40326;51.220;7.250;2022-12-10T09:10:56;43.40;;;28.38;;
54416;SDS011;40326;51.220;7.250;2022-12-10T09:13:22;43.90;;;29.08;;
54416;SDS011;40326;51.220;7.250;2022-12-10T09:15:51;43.08;;;27.88;;
54416;SDS011;40326;51.220;7.250;2022-12-10T09:18:16;41.00;;;25.60;;
54416;SDS011;40326;51.220;7.250;2022-12-10T09:20:42;43.83;;;28.02;;
54416;SDS011;40326;51.220;7.250;2022-12-10T09:23:07;45.30;;;28.83;;
54416;SDS011;40326;51.220;7.250;2022-12-10T09:25:32;49.83;;;29.52;;
54416;SDS011;40326;51.220;7.250;2022-12-10T09:27:57;49.00;;;28.40;;
54416;SDS011;40326;51.220;7.250;2022-12-10T09:30:22;56.97;;;45.58;;
54416;SDS011;40326;51.220;7.250;2022-12-10T09:32:48;42.90;;;27.50;;
54416;SDS011;40326;51.220;7.250;2022-12-10T09:35:13;47.65;;;28.58;;
54416;SDS011;40326;51.220;7.250;2022-12-10T09:37:38;48.72;;;28.63;;
54416;SDS011;40326;51.220;7.250;2022-12-10T09:40:03;47.25;;;27.17;;
54416;SDS011;40326;51.220;7.250;2022-12-10T09:42:41;39.83;;;24.63;;
54416;SDS011;40326;51.220;7.250;2022-12-10T09:47:36;54.50;;;31.15;;
54416;SDS011;40326;51.220;7.250;2022-12-10T09:50:12;52.47;;;30.27;;
54416;SDS011;40326;51.220;7.250;2022-12-10T09:52:40;48.13;;;27.25;;
54416;SDS011;40326;51.220;7.250;2022-12-10T09:55:10;50.63;;;28.58;;
54416;SDS011;40326;51.220;7.250;2022-12-10T09:57:47;43.05;;;24.52;;
54416;SDS011;40326;51.220;7.250;2022-12-10T10:00:21;43.95;;;25.60;;
54416;SDS011;40326;51.220;7.250;2022-12-10T10:02:46;43.92;;;25.17;;
54416;SDS011;40326;51.220;7.250;2022-12-10T10:05:14;48.90;;;25.95;;
54416;SDS011;40326;51.220;7.250;2022-12-10T10:07:53;44.80;;;25.80;;
54416;SDS011;40326;51.220;7.250;2022-12-10T10:10:24;41.80;;;24.80;;
54416;SDS011;40326;51.220;7.250;2022-12-10T10:12:51;44.05;;;25.40;;
54416;SDS011;40326;51.220;7.250;2022-12-10T10:15:18;42.13;;;24.63;;
54416;SDS011;40326;51.220;7.250;2022-12-10T10:17:47;39.67;;;22.88;;
54416;SDS011;40326;51.220;7.250;2022-12-10T10:20:14;45.42;;;24.17;;
54416;SDS011;40326;51.220;7.250;2022-12-10T10:22:40;40.10;;;22.60;;
54416;SDS011;40326;51.220;7.250;2022-12-10T10:25:05;38.00;;;22.65;;
54416;SDS011;40326;51.220;7.250;2022-12-10T10:27:37;41.58;;;23.00;;
54416;SDS011;40326;51.220;7.250;2022-12-10T10:30:03;38.10;;;24.05;;
54416;SDS011;40326;51.220;7.250;2022-12-10T10:35:00;42.60;;;24.77;;
54416;SDS011;40326;51.220;7.250;2022-12-10T10:37:30;47.97;;;26.20;;
54416;SDS011;40326;51.220;7.250;2022-12-10T10:39:56;44.17;;;24.48;;
54416;SDS011;40326;51.220;7.250;2022-12-10T10:42:32;44.13;;;24.58;;
54416;SDS011;40326;51.220;7.250;2022-12-10T10:44:59;48.70;;;25.05;;
54416;SDS011;40326;51.220;7.250;2022-12-10T10:47:29;41.75;;;24.02;;
54416;SDS011;40326;51.220;7.250;2022-12-10T10:49:54;39.75;;;23.15;;
54416;SDS011;40326;51.220;7.250;2022-12-10T10:52:19;41.30;;;24.17;;
54416;SDS011;40326;51.220;7.250;2022-12-10T10:54:45;39.28;;;22.85;;
54416;SDS011;40326;51.220;7.250;2022-12-10T10:57:53;37.47;;;21.90;;
54416;SDS011;40326;51.220;7.250;2022-12-10T11:00:00;39.38;;;22.17;;
54416;SDS011;40326;51.220;7.250;2022-12-10T11:02:29;39.13;;;23.13;;
54416;SDS011;40326;51.220;7.250;2022-12-10T11:04:55;39.40;;;22.95;;
54416;SDS011;40326;51.220;7.250;2022-12-10T11:07:32;42.97;;;23.90;;
54416;SDS011;40326;51.220;7.250;2022-12-10T11:09:58;40.28;;;23.73;;
54416;SDS011;40326;51.220;7.250;2022-12-10T11:12:37;41.30;;;23.70;;
54416;SDS011;40326;51.220;7.250;2022-12-10T11:15:21;43.63;;;23.75;;
54416;SDS011;40326;51.220;7.250;2022-12-10T11:17:54;43.35;;;23.20;;
54416;SDS011;40326;51.220;7.250;2022-12-10T11:20:21;40.65;;;23.15;;
54416;SDS011;40326;51.220;7.250;2022-12-10T11:22:50;39.95;;;23.20;;
54416;SDS011;40326;51.220;7.250;2022-12-10T11:25:16;40.50;;;23.60;;
54416;SDS011;40326;51.220;7.250;2022-12-10T11:30:17;40.95;;;25.08;;
54416;SDS011;40326;51.220;7.250;2022-12-10T11:38:26;44.45;;;23.65;;
54416;SDS011;40326;51.220;7.250;2022-12-10T11:41:01;42.03;;;23.95;;
54416;SDS011;40326;51.220;7.250;2022-12-10T11:46:17;42.30;;;23.83;;
54416;SDS011;40326;51.220;7.250;2022-12-10T11:56:52;49.17;;;26.27;;
54416;SDS011;40326;51.220;7.250;2022-12-10T12:14:44;41.03;;;24.23;;
54416;SDS011;40326;51.220;7.250;2022-12-10T12:17:13;46.75;;;26.73;;
54416;SDS011;40326;51.220;7.250;2022-12-10T12:19:45;47.72;;;26.83;;
54416;SDS011;40326;51.220;7.250;2022-12-10T12:22:15;49.42;;;27.92;;
54416;SDS011;40326;51.220;7.250;2022-12-10T12:24:43;49.20;;;28.63;;
54416;SDS011;40326;51.220;7.250;2022-12-10T12:29:44;49.50;;;29.23;;
54416;SDS011;40326;51.220;7.250;2022-12-10T12:32:11;47.03;;;28.13;;
54416;SDS011;40326;51.220;7.250;2022-12-10T12:37:08;51.67;;;27.02;;
54416;SDS011;40326;51.220;7.250;2022-12-10T12:39:40;49.47;;;30.13;;
54416;SDS011;40326;51.220;7.250;2022-12-10T12:43:09;45.05;;;26.48;;
54416;SDS011;40326;51.220;7.250;2022-12-10T12:45:16;43.67;;;27.27;;
54416;SDS011;40326;51.220;7.250;2022-12-10T12:52:59;44.95;;;24.73;;
54416;SDS011;40326;51.220;7.250;2022-12-10T12:55:43;38.63;;;22.63;;
54416;SDS011;40326;51.220;7.250;2022-12-10T12:58:11;44.88;;;26.88;;
54416;SDS011;40326;51.220;7.250;2022-12-10T13:00:41;44.72;;;25.85;;
54416;SDS011;40326;51.220;7.250;2022-12-10T13:03:20;50.38;;;28.15;;
54416;SDS011;40326;51.220;7.250;2022-12-10T13:05:49;44.05;;;26.13;;
54416;SDS011;40326;51.220;7.250;2022-12-10T13:13:41;45.28;;;24.92;;
54416;SDS011;40326;51.220;7.250;2022-12-10T13:16:36;41.63;;;25.70;;
54416;SDS011;40326;51.220;7.250;2022-12-10T13:19:16;40.30;;;23.58;;
54416;SDS011;40326;51.220;7.250;2022-12-10T13:32:24;50.25;;;27.33;;
54416;SDS011;40326;51.220;7.250;2022-12-10T13:43:20;50.95;;;28.67;;
54416;SDS011;40326;51.220;7.250;2022-12-10T13:49:02;49.33;;;28.05;;
54416;SDS011;40326;51.220;7.250;2022-12-10T13:56:51;48.30;;;25.98;;
54416;SDS011;40326;51.220;7.250;2022-12-10T13:59:32;45.17;;;26.60;;
54416;SDS011;40326;51.220;7.250;2022-12-10T14:02:14;50.42;;;26.60;;
54416;SDS011;40326;51.220;7.250;2022-12-10T14:04:50;44.08;;;25.05;;
54416;SDS011;40326;51.220;7.250;2022-12-10T14:07:20;42.25;;;24.90;;
54416;SDS011;40326;51.220;7.250;2022-12-10T14:09:48;46.22;;;25.70;;
54416;SDS011;40326;51.220;7.250;2022-12-10T14:12:15;43.75;;;25.50;;
54416;SDS011;40326;51.220;7.250;2022-12-10T14:14:46;41.63;;;23.92;;
54416;SDS011;40326;51.220;7.250;2022-12-10T14:17:12;42.08;;;25.92;;
54416;SDS011;40326;51.220;7.250;2022-12-10T14:19:41;42.17;;;25.10;;
54416;SDS011;40326;51.220;7.250;2022-12-10T14:22:07;45.72;;;25.30;;
54416;SDS011;40326;51.220;7.250;2022-12-10T14:24:37;44.60;;;24.73;;
54416;SDS011;40326;51.220;7.250;2022-12-10T14:27:10;42.60;;;25.60;;
54416;SDS011;40326;51.220;7.250;2022-12-10T14:29:36;44.40;;;25.95;;
54416;SDS011;40326;51.220;7.250;2022-12-10T14:32:01;39.72;;;23.35;;
54416;SDS011;40326;51.220;7.250;2022-12-10T14:34:27;38.03;;;22.48;;
54416;SDS011;40326;51.220;7.250;2022-12-10T14:36:57;41.08;;;23.27;;
54416;SDS011;40326;51.220;7.250;2022-12-10T14:39:29;44.28;;;24.13;;
54416;SDS011;40326;51.220;7.250;2022-12-10T14:41:56;44.17;;;24.98;;
54416;SDS011;40326;51.220;7.250;2022-12-10T14:44:22;47.42;;;24.85;;
54416;SDS011;40326;51.220;7.250;2022-12-10T14:46:48;48.47;;;27.80;;
54416;SDS011;40326;51.220;7.250;2022-12-10T14:49:19;48.22;;;26.80;;
54416;SDS011;40326;51.220;7.250;2022-12-10T14:51:44;50.78;;;27.60;;
54416;SDS011;40326;51.220;7.250;2022-12-10T14:54:23;58.42;;;28.77;;
54416;SDS011;40326;51.220;7.250;2022-12-10T14:56:49;48.30;;;28.05;;
54416;SDS011;40326;51.220;7.250;2022-12-10T14:59:16;49.33;;;27.73;;
54416;SDS011;40326;51.220;7.250;2022-12-10T15:01:44;50.28;;;28.55;;
54416;SDS011;40326;51.220;7.250;2022-12-10T15:04:15;50.25;;;30.08;;
54416;SDS011;40326;51.220;7.250;2022-12-10T15:06:41;52.33;;;29.77;;
54416;SDS011;40326;51.220;7.250;2022-12-10T15:09:11;54.17;;;28.92;;
54416;SDS011;40326;51.220;7.250;2022-12-10T15:11:38;54.35;;;28.85;;
54416;SDS011;40326;51.220;7.250;2022-12-10T15:14:03;54.15;;;29.20;;
54416;SDS011;40326;51.220;7.250;2022-12-10T15:16:40;55.45;;;31.95;;
54416;SDS011;40326;51.220;7.250;2022-12-10T15:19:06;57.20;;;30.65;;
54416;SDS011;40326;51.220;7.250;2022-12-10T15:21:32;63.33;;;31.88;;
54416;SDS011;40326;51.220;7.250;2022-12-10T15:24:07;58.13;;;31.77;;
54416;SDS011;40326;51.220;7.250;2022-12-10T15:26:34;57.50;;;33.30;;
54416;SDS011;40326;51.220;7.250;2022-12-10T15:31:44;55.20;;;31.95;;
54416;SDS011;40326;51.220;7.250;2022-12-10T15:34:11;57.88;;;31.08;;
54416;SDS011;40326;51.220;7.250;2022-12-10T15:36:41;54.17;;;29.50;;
54416;SDS011;40326;51.220;7.250;2022-12-10T15:41:54;59.28;;;33.00;;
54416;SDS011;40326;51.220;7.250;2022-12-10T15:49:22;53.00;;;28.17;;
54416;SDS011;40326;51.220;7.250;2022-12-10T15:51:47;54.78;;;28.92;;
54416;SDS011;40326;51.220;7.250;2022-12-10T15:54:23;55.85;;;30.20;;
54416;SDS011;40326;51.220;7.250;2022-12-10T15:56:51;51.13;;;28.30;;
54416;SDS011;40326;51.220;7.250;2022-12-10T15:59:16;56.22;;;30.20;;
54416;SDS011;40326;51.220;7.250;2022-12-10T16:01:42;54.67;;;29.85;;
54416;SDS011;40326;51.220;7.250;2022-12-10T16:04:07;51.95;;;29.52;;
54416;SDS011;40326;51.220;7.250;2022-12-10T16:06:33;54.80;;;29.38;;
54416;SDS011;40326;51.220;7.250;2022-12-10T16:08:58;56.28;;;32.47;;
54416;SDS011;40326;51.220;7.250;2022-12-10T16:11:23;57.15;;;31.48;;
54416;SDS011;40326;51.220;7.250;2022-12-10T16:13:50;57.50;;;32.08;;
54416;SDS011;40326;51.220;7.250;2022-12-10T16:16:16;52.20;;;29.55;;
54416;SDS011;40326;51.220;7.250;2022-12-10T16:18:42;56.97;;;31.98;;
54416;SDS011;40326;51.220;7.250;2022-12-10T16:21:07;62.65;;;32.70;;
54416;SDS011;40326;51.220;7.250;2022-12-10T16:23:33;65.63;;;33.80;;
54416;SDS011;40326;51.220;7.250;2022-12-10T16:25:59;61.20;;;33.33;;
54416;SDS011;40326;51.220;7.250;2022-12-10T16:28:24;59.30;;;31.45;;